Aérodrome :
LOGIN :

S'inscrire | Disclaimer

   EN    FR    IT 

 










Légende :    VFR   VFR Marginal   IFR   IFR Intensif   IFR Très Intensif
Visi : 
Plafond : 
>= 8 km
>= 3000ft
5 à 8 km
1000 à 3000 ft
1500m à 5 km
500 à 1000 ft
800 à 1500m
200 à 500 ft
< 800m
< 200 ft
Symboles :   Orages  Brouillard  Fortes neiges  Fortes précipitations  Vent > 20 kt
SIGMETs :   Divers  Orages  Givrage  Turbulence  Onde Orograph.  Cendres Volcan.







- Altitude de l'aérodrome : 39 ft


ETNH - Hohn AB

DERNIER METAR :
  • 182120Z 10003KT 9999 BKN060 12/11 Q1014 BLU FCST CANCEL

METARs EXPIRÉS :
  • 182020Z 11003KT 9999 BKN060 12/11 Q1014 BLU BLU
  • 181920Z 09004KT 9999 BKN050 12/11 Q1014 BLU BLU

TAF AMD TAF ETNH
Valide du 18 à 14h jusqu'au 18 à 23h UTC


181629Z 1814/1823 21007KT 8000 NSW FEW020 SCT050 BKN210
BECMG 1814/1816 VRB03KT 8000 NSW SCT015 BKN040 BKN180 CANCEL 1700Z BY ETGL
Pas de NOTAMs connus pour ce terrain.



MET'MAP, la Météo Aéronautique d'un coup d'oeil ! - Copyright ORBIFLY Décembre 2007 - Disclaimer

ORBIFLY MET'MAP TEAM :

Programmation & Développement : Alexandra Zaïnal
Conception & Développement : Baudouin d'Aumeries
Co-Programmation & Développement : Marc-Olivier Méhu
Soutien technique & logistique : Manuel Goepfert

Contact : metmap@orbifly.com




SOURCES & CREDITS :

   NOAA